createdAt,value
2024-04-19T00:01:28.968Z,71.01
2024-04-19T00:04:00.416Z,71.87
2024-04-19T00:06:31.856Z,72.43
2024-04-19T00:09:02.964Z,72.97
2024-04-19T00:11:34.108Z,72.64
2024-04-19T00:14:05.387Z,72.32
2024-04-19T00:16:36.572Z,72.24
2024-04-19T00:19:07.778Z,72.82
2024-04-19T00:21:38.968Z,73.09
2024-04-19T00:24:10.327Z,72.90
2024-04-19T00:26:41.500Z,74.12
2024-04-19T00:29:12.612Z,74.32
2024-04-19T00:31:43.727Z,73.53
2024-04-19T00:34:14.931Z,73.65
2024-04-19T00:36:46.041Z,73.39
2024-04-19T00:39:17.155Z,73.20
2024-04-19T00:41:48.314Z,72.81
2024-04-19T00:44:19.518Z,72.41
2024-04-19T00:46:50.650Z,73.17
2024-04-19T00:49:36.827Z,74.14
2024-04-19T00:52:09.321Z,73.87
2024-04-19T00:54:42.310Z,73.79
2024-04-19T00:57:14.020Z,73.68
2024-04-19T00:59:45.879Z,73.61
2024-04-19T01:02:17.254Z,73.59
2024-04-19T01:04:48.462Z,73.72
2024-04-19T01:07:19.708Z,73.35
2024-04-19T01:09:51.290Z,73.36
2024-04-19T01:12:22.766Z,73.57
2024-04-19T01:14:53.991Z,74.46
2024-04-19T01:17:25.207Z,74.39
2024-04-19T01:19:56.348Z,75.49
2024-04-19T01:22:40.247Z,76.25
2024-04-19T01:25:17.478Z,75.66
2024-04-19T01:27:48.856Z,75.49
2024-04-19T01:30:20.014Z,76.03
2024-04-19T01:32:51.394Z,76.10
2024-04-19T01:35:22.638Z,74.71
2024-04-19T01:37:53.946Z,74.33
2024-04-19T01:40:25.078Z,73.91
2024-04-19T01:42:56.428Z,73.52
2024-04-19T01:45:27.960Z,74.08
2024-04-19T01:48:01.046Z,74.29
2024-04-19T01:50:32.279Z,74.04
2024-04-19T01:53:03.727Z,74.54
2024-04-19T01:55:35.070Z,74.34
2024-04-19T01:58:06.512Z,74.75
2024-04-19T02:00:37.938Z,74.11
2024-04-19T02:03:09.059Z,73.83
2024-04-19T02:05:40.286Z,73.47
2024-04-19T02:08:11.455Z,73.42
2024-04-19T02:10:42.543Z,73.72
2024-04-19T02:13:13.759Z,73.61
2024-04-19T02:15:45.201Z,74.09
2024-04-19T02:18:16.383Z,73.93
2024-04-19T02:20:47.513Z,73.94
2024-04-19T02:23:39.387Z,74.35
2024-04-19T02:26:10.951Z,73.94
2024-04-19T02:29:00.696Z,73.99
2024-04-19T02:31:31.940Z,74.78
2024-04-19T02:34:03.668Z,74.78
2024-04-19T02:36:34.940Z,75.20
2024-04-19T02:39:06.371Z,75.03
2024-04-19T02:41:37.471Z,75.66
2024-04-19T02:44:09.825Z,75.83
2024-04-19T02:46:41.376Z,76.18
2024-04-19T02:49:12.527Z,75.72
2024-04-19T02:51:43.752Z,75.20
2024-04-19T02:54:14.853Z,74.97
2024-04-19T02:56:45.960Z,74.92
2024-04-19T02:59:17.090Z,75.52
2024-04-19T03:01:48.166Z,74.53
2024-04-19T03:04:19.347Z,74.01
2024-04-19T03:06:50.578Z,73.93
2024-04-19T03:09:21.830Z,73.74
2024-04-19T03:11:56.154Z,73.81
2024-04-19T03:14:27.501Z,73.59
2024-04-19T03:16:59.357Z,73.06
2024-04-19T03:19:48.884Z,72.96
2024-04-19T03:22:20.166Z,72.40
2024-04-19T03:24:51.275Z,71.48
2024-04-19T03:27:22.476Z,71.46
2024-04-19T03:29:57.349Z,71.90
2024-04-19T03:32:28.701Z,72.30
2024-04-19T03:35:00.610Z,72.91
2024-04-19T03:37:31.963Z,72.71
2024-04-19T03:40:03.507Z,72.86
2024-04-19T03:42:37.601Z,72.77
2024-04-19T03:45:26.591Z,73.77
2024-04-19T03:47:57.839Z,73.37
2024-04-19T03:50:29.140Z,72.24
2024-04-19T03:53:01.317Z,71.83
2024-04-19T03:55:32.531Z,71.40
2024-04-19T03:58:03.671Z,71.39
2024-04-19T04:00:37.550Z,71.77
2024-04-19T04:03:09.214Z,71.58
2024-04-19T04:05:50.338Z,72.03
2024-04-19T04:08:21.421Z,72.31
2024-04-19T04:10:52.585Z,73.30
2024-04-19T04:13:23.725Z,74.47
2024-04-19T04:15:55.000Z,74.50
2024-04-19T04:18:26.423Z,74.07
2024-04-19T04:20:57.659Z,74.71
2024-04-19T04:23:29.012Z,75.78
2024-04-19T04:26:00.485Z,76.55
2024-04-19T04:28:31.938Z,76.17
2024-04-19T04:31:03.150Z,75.73
2024-04-19T04:33:34.426Z,75.79
2024-04-19T04:36:06.236Z,75.98
2024-04-19T04:38:37.360Z,75.54
2024-04-19T04:41:08.600Z,76.29
2024-04-19T04:43:41.077Z,77.17
2024-04-19T04:46:12.869Z,76.92
2024-04-19T04:48:44.554Z,76.17
2024-04-19T04:51:15.992Z,76.12
2024-04-19T04:53:47.394Z,75.72
2024-04-19T04:56:18.681Z,76.07
2024-04-19T04:58:50.183Z,76.01
2024-04-19T05:01:21.778Z,76.50
2024-04-19T05:03:53.511Z,77.12
2024-04-19T05:06:24.911Z,77.49
2024-04-19T05:08:56.160Z,78.66
2024-04-19T05:11:27.736Z,79.10
2024-04-19T05:13:59.078Z,79.89
2024-04-19T05:16:31.053Z,78.95
2024-04-19T05:19:02.493Z,79.79
2024-04-19T05:21:34.149Z,80.93
2024-04-19T05:24:08.474Z,81.57
2024-04-19T05:26:40.071Z,80.61
2024-04-19T05:29:14.030Z,80.67
2024-04-19T05:31:45.310Z,80.03
2024-04-19T05:34:16.559Z,80.41
2024-04-19T05:36:48.130Z,80.16
2024-04-19T05:39:19.633Z,80.80
2024-04-19T05:41:51.101Z,80.84
2024-04-19T05:44:22.629Z,80.96
2024-04-19T05:46:54.449Z,81.61
2024-04-19T05:49:26.827Z,81.15
2024-04-19T05:51:58.096Z,81.07
2024-04-19T05:54:29.287Z,81.16
2024-04-19T05:57:01.606Z,81.51
2024-04-19T05:59:32.787Z,82.06
2024-04-19T06:02:04.008Z,81.62
2024-04-19T06:04:40.949Z,81.97
2024-04-19T06:07:12.318Z,81.91
2024-04-19T06:09:43.612Z,81.75
2024-04-19T06:12:14.871Z,81.56
2024-04-19T06:14:46.053Z,82.16
2024-04-19T06:17:17.292Z,84.01
2024-04-19T06:19:48.669Z,84.27
2024-04-19T06:22:19.817Z,83.25
2024-04-19T06:24:51.151Z,83.13
2024-04-19T06:27:22.556Z,81.37
2024-04-19T06:29:53.840Z,82.74
2024-04-19T06:32:24.957Z,82.11
2024-04-19T06:34:56.046Z,81.33
2024-04-19T06:37:27.400Z,79.56
2024-04-19T06:40:05.481Z,79.30
2024-04-19T06:42:39.166Z,79.35
2024-04-19T06:45:10.739Z,79.66
2024-04-19T06:47:44.207Z,79.49
2024-04-19T06:50:15.760Z,80.13
2024-04-19T06:52:46.897Z,80.02
2024-04-19T06:55:18.204Z,80.28
2024-04-19T06:57:50.012Z,81.23
2024-04-19T07:00:33.299Z,81.68
2024-04-19T07:03:12.740Z,79.91
2024-04-19T07:05:44.429Z,79.37
2024-04-19T07:08:15.700Z,78.93
2024-04-19T07:10:46.915Z,78.59
2024-04-19T07:13:17.994Z,79.46
2024-04-19T07:15:49.187Z,79.22
2024-04-19T07:18:23.469Z,79.44
2024-04-19T07:20:55.383Z,79.08
2024-04-19T07:23:26.699Z,79.23
2024-04-19T07:25:57.832Z,79.60
2024-04-19T07:28:28.934Z,78.10
2024-04-19T07:31:01.319Z,78.12
2024-04-19T07:33:32.409Z,78.51
2024-04-19T07:36:03.606Z,78.42
2024-04-19T07:38:36.392Z,78.25
2024-04-19T07:41:07.731Z,79.47
2024-04-19T07:43:45.864Z,78.32
2024-04-19T07:46:21.176Z,78.97
2024-04-19T07:48:52.450Z,79.00
2024-04-19T07:51:23.971Z,79.15
2024-04-19T07:53:55.152Z,79.33
2024-04-19T07:56:26.545Z,79.04
2024-04-19T07:58:57.705Z,78.75
2024-04-19T08:01:29.007Z,79.31
2024-04-19T08:04:00.942Z,78.89
2024-04-19T08:06:34.106Z,79.29
2024-04-19T08:09:05.349Z,79.32
2024-04-19T08:11:36.609Z,77.95
2024-04-19T08:14:07.720Z,77.82
2024-04-19T08:16:38.871Z,78.28
2024-04-19T08:19:11.208Z,77.89
2024-04-19T08:21:42.444Z,77.94
2024-04-19T08:24:13.643Z,77.34
2024-04-19T08:26:44.764Z,77.23
2024-04-19T08:29:22.299Z,77.49
2024-04-19T08:31:59.711Z,76.13
2024-04-19T08:34:30.854Z,75.71
2024-04-19T08:37:02.744Z,75.64
2024-04-19T08:39:33.943Z,75.33
2024-04-19T08:42:10.542Z,76.04
2024-04-19T08:44:45.692Z,76.00
2024-04-19T08:47:18.593Z,77.23
2024-04-19T08:49:51.462Z,75.29
2024-04-19T08:52:48.745Z,74.79
2024-04-19T08:55:15.870Z,74.87
2024-04-19T08:57:48.161Z,72.52
2024-04-19T09:00:22.494Z,73.74
2024-04-19T09:02:54.286Z,73.06
2024-04-19T09:05:25.502Z,72.49
2024-04-19T09:07:56.915Z,73.64
2024-04-19T09:10:28.505Z,73.41
2024-04-19T09:12:59.890Z,73.48
2024-04-19T09:15:32.569Z,72.60
2024-04-19T09:18:05.125Z,71.64
2024-04-19T09:20:36.394Z,72.46
2024-04-19T09:23:07.881Z,71.63
2024-04-19T09:25:39.687Z,70.92
2024-04-19T09:28:14.000Z,72.16
2024-04-19T09:30:45.939Z,73.36
2024-04-19T09:33:20.035Z,75.29
2024-04-19T09:35:53.771Z,74.84
2024-04-19T09:38:25.084Z,74.53
2024-04-19T09:40:56.244Z,75.06
2024-04-19T09:43:30.144Z,75.31
2024-04-19T09:46:02.557Z,75.66
2024-04-19T09:48:41.239Z,75.63
2024-04-19T09:51:16.766Z,75.06
2024-04-19T09:53:51.058Z,75.94
2024-04-19T09:56:32.752Z,76.63
2024-04-19T09:59:06.083Z,76.96
2024-04-19T10:01:39.283Z,76.48
2024-04-19T10:04:11.294Z,77.36
2024-04-19T10:06:45.296Z,79.21
2024-04-19T10:09:19.718Z,78.48
2024-04-19T10:11:53.476Z,78.58
2024-04-19T10:14:25.276Z,80.53
2024-04-19T10:16:57.485Z,79.78
2024-04-19T10:19:39.594Z,76.89
2024-04-19T10:22:23.130Z,74.92
2024-04-19T10:25:01.350Z,74.08
2024-04-19T10:27:34.305Z,72.66
2024-04-19T10:30:13.710Z,73.74
2024-04-19T10:32:54.974Z,74.39
2024-04-19T10:35:26.370Z,73.86
2024-04-19T10:37:59.642Z,74.21
2024-04-19T10:40:30.963Z,74.97
2024-04-19T10:43:06.208Z,75.89
2024-04-19T10:45:38.036Z,77.21
2024-04-19T10:48:11.020Z,77.64
2024-04-19T10:50:44.917Z,76.39
2024-04-19T10:53:17.965Z,75.54
2024-04-19T10:55:49.935Z,77.30
2024-04-19T10:58:21.043Z,77.63
2024-04-19T11:00:52.390Z,78.31
2024-04-19T11:03:24.028Z,77.90
2024-04-19T11:05:56.302Z,78.18
2024-04-19T11:08:27.722Z,78.42
2024-04-19T11:10:59.068Z,79.84
2024-04-19T11:13:30.262Z,79.81
2024-04-19T11:16:01.554Z,78.13
2024-04-19T11:18:32.834Z,78.51
2024-04-19T11:21:08.608Z,78.71
2024-04-19T11:23:43.842Z,78.00
2024-04-19T11:26:18.648Z,76.41
2024-04-19T11:28:48.887Z,79.35
2024-04-19T11:31:21.312Z,79.11
2024-04-19T11:33:56.323Z,77.53
2024-04-19T11:36:27.664Z,77.64
2024-04-19T11:38:59.183Z,75.81
2024-04-19T11:41:30.970Z,77.03
2024-04-19T11:44:03.840Z,76.63
2024-04-19T11:46:35.028Z,77.64
2024-04-19T11:49:07.317Z,78.56
2024-04-19T11:51:38.485Z,76.46
2024-04-19T11:54:09.949Z,77.05
2024-04-19T11:56:41.142Z,79.52
2024-04-19T11:59:20.046Z,79.37
2024-04-19T12:01:52.332Z,80.70
2024-04-19T12:04:23.701Z,81.46
2024-04-19T12:06:55.139Z,79.66
2024-04-19T12:09:27.147Z,78.63
2024-04-19T12:15:22.519Z,78.25
2024-04-19T12:17:29.584Z,76.92
2024-04-19T12:20:08.098Z,75.29
2024-04-19T12:22:54.676Z,74.76
2024-04-19T12:25:31.144Z,74.27
2024-04-19T12:28:02.912Z,73.77
2024-04-19T12:30:34.941Z,73.63
2024-04-19T12:33:06.550Z,74.07
2024-04-19T12:35:37.731Z,74.27
2024-04-19T12:38:09.004Z,73.67
2024-04-19T12:40:42.802Z,73.16
2024-04-19T12:43:14.889Z,73.85
2024-04-19T12:45:50.804Z,74.12
2024-04-19T12:48:22.546Z,73.29
2024-04-19T12:50:54.039Z,72.75
2024-04-19T12:53:25.368Z,73.24
2024-04-19T12:55:56.805Z,73.78
2024-04-19T12:58:31.074Z,73.18
2024-04-19T13:01:04.879Z,73.62
2024-04-19T13:03:36.552Z,74.84
2024-04-19T13:06:08.135Z,75.36
2024-04-19T13:08:39.822Z,76.20
2024-04-19T13:11:11.138Z,77.74
2024-04-19T13:13:54.629Z,78.12
2024-04-19T13:16:27.456Z,77.35
2024-04-19T13:18:58.916Z,77.69
2024-04-19T13:21:30.555Z,78.74
2024-04-19T13:24:02.147Z,77.95
2024-04-19T13:26:34.027Z,78.04
2024-04-19T13:29:05.975Z,77.92
2024-04-19T13:31:37.614Z,78.12
2024-04-19T13:34:09.170Z,77.69
2024-04-19T13:36:41.626Z,77.71
2024-04-19T13:39:13.296Z,78.66
2024-04-19T13:41:46.169Z,78.05
2024-04-19T13:44:20.368Z,77.44
2024-04-19T13:46:52.032Z,78.77
2024-04-19T13:49:23.380Z,78.34
2024-04-19T13:51:54.849Z,78.98
2024-04-19T13:54:26.743Z,77.62
2024-04-19T13:56:58.369Z,77.24
2024-04-19T13:59:30.296Z,77.84
2024-04-19T14:02:01.837Z,77.67
2024-04-19T14:04:36.623Z,77.02
2024-04-19T14:07:06.887Z,76.80
2024-04-19T14:09:39.712Z,76.52
2024-04-19T14:12:11.541Z,75.84
2024-04-19T14:14:42.902Z,75.96
2024-04-19T14:17:14.101Z,77.37
2024-04-19T14:19:47.765Z,76.60
2024-04-19T14:22:19.105Z,76.49
2024-04-19T14:24:51.285Z,76.01
2024-04-19T14:27:23.394Z,75.70
2024-04-19T14:29:56.087Z,76.08
2024-04-19T14:32:27.472Z,74.83
2024-04-19T14:34:58.661Z,74.85
2024-04-19T14:37:30.559Z,74.53
2024-04-19T14:40:01.926Z,75.03
2024-04-19T14:42:33.393Z,75.79
2024-04-19T14:45:05.581Z,75.45
2024-04-19T14:47:37.782Z,76.19
2024-04-19T14:50:09.591Z,76.19
2024-04-19T14:52:50.561Z,77.19
2024-04-19T14:55:27.358Z,77.94
2024-04-19T14:57:58.964Z,78.29
2024-04-19T15:00:30.327Z,78.02
2024-04-19T15:03:01.655Z,78.28
2024-04-19T15:05:33.020Z,79.17
2024-04-19T15:08:08.398Z,77.96
2024-04-19T15:10:40.580Z,78.07
2024-04-19T15:13:11.876Z,79.40
2024-04-19T15:15:44.474Z,79.09
2024-04-19T15:18:15.708Z,79.60
2024-04-19T15:20:46.839Z,79.43
2024-04-19T15:23:17.986Z,77.86
2024-04-19T15:25:49.531Z,80.88
2024-04-19T15:28:21.679Z,81.93
2024-04-19T15:30:53.358Z,81.45
2024-04-19T15:33:24.864Z,80.66
2024-04-19T15:35:56.184Z,80.47
2024-04-19T15:38:27.388Z,80.48
2024-04-19T15:40:58.613Z,80.77
2024-04-19T15:43:29.849Z,80.75
2024-04-19T15:46:01.031Z,80.41
2024-04-19T15:48:32.341Z,79.75
2024-04-19T15:51:06.472Z,79.69
2024-04-19T15:53:38.439Z,80.18
2024-04-19T15:56:10.851Z,80.49
2024-04-19T15:58:42.286Z,80.93
2024-04-19T16:01:13.754Z,81.03
2024-04-19T16:03:45.028Z,80.83
2024-04-19T16:06:16.237Z,80.87
2024-04-19T16:08:49.493Z,81.20
2024-04-19T16:11:21.400Z,84.26
2024-04-19T16:13:52.735Z,81.99
2024-04-19T16:16:23.916Z,81.68
2024-04-19T16:18:55.684Z,81.92
2024-04-19T16:21:27.399Z,81.24
2024-04-19T16:23:58.811Z,81.37
2024-04-19T16:26:30.042Z,82.41
2024-04-19T16:29:01.607Z,84.23
2024-04-19T16:31:33.886Z,82.77
2024-04-19T16:34:05.684Z,82.80
2024-04-19T16:36:37.238Z,84.14
2024-04-19T16:39:08.615Z,86.26
2024-04-19T16:41:40.516Z,86.09
2024-04-19T16:44:11.737Z,85.76
2024-04-19T16:46:43.417Z,85.95
2024-04-19T16:49:14.650Z,85.43
2024-04-19T16:51:46.402Z,85.94
2024-04-19T16:54:17.853Z,86.02
2024-04-19T16:56:49.089Z,85.16
2024-04-19T16:59:21.027Z,85.21
2024-04-19T17:01:53.233Z,84.90
2024-04-19T17:04:24.582Z,85.44
2024-04-19T17:06:58.423Z,85.61
2024-04-19T17:09:30.027Z,86.74
2024-04-19T17:12:03.840Z,87.18
2024-04-19T17:14:35.562Z,86.79
2024-04-19T17:17:07.315Z,87.48
2024-04-19T17:19:39.589Z,88.40
2024-04-19T17:22:11.438Z,88.09
2024-04-19T17:24:43.376Z,88.20
2024-04-19T17:27:17.394Z,88.27
2024-04-19T17:29:49.504Z,87.80
2024-04-19T17:32:20.855Z,87.34
2024-04-19T17:34:52.507Z,87.93
2024-04-19T17:37:24.787Z,87.60
2024-04-19T17:39:56.509Z,86.82
2024-04-19T17:42:28.286Z,87.18
2024-04-19T17:44:59.602Z,87.42
2024-04-19T17:47:31.859Z,86.84
2024-04-19T17:50:04.897Z,86.40
2024-04-19T17:52:36.099Z,85.94
2024-04-19T17:55:08.550Z,86.18
2024-04-19T17:57:39.831Z,86.38
2024-04-19T18:00:12.747Z,85.50
2024-04-19T18:02:44.117Z,84.41
2024-04-19T18:05:15.605Z,83.98
2024-04-19T18:07:46.739Z,83.54
2024-04-19T18:10:22.691Z,83.77
2024-04-19T18:12:54.199Z,83.93
2024-04-19T18:15:25.675Z,83.67
2024-04-19T18:18:03.253Z,83.53
2024-04-19T18:20:34.810Z,83.24
2024-04-19T18:23:06.202Z,83.80
2024-04-19T18:25:37.824Z,83.56
2024-04-19T18:28:10.220Z,83.96
2024-04-19T18:30:42.327Z,83.85
2024-04-19T18:33:13.801Z,83.90
2024-04-19T18:35:46.249Z,83.70
2024-04-19T18:38:17.674Z,83.71
2024-04-19T18:40:50.608Z,83.43
2024-04-19T18:43:21.765Z,83.40
2024-04-19T18:45:53.082Z,83.40
2024-04-19T18:48:24.563Z,83.23
2024-04-19T18:50:56.344Z,83.35
2024-04-19T18:53:28.809Z,83.25
2024-04-19T18:56:00.245Z,82.70
2024-04-19T18:58:31.932Z,82.92
2024-04-19T19:01:11.027Z,83.15
2024-04-19T19:03:43.722Z,84.18
2024-04-19T19:06:17.177Z,83.77
2024-04-19T19:08:48.636Z,83.52
2024-04-19T19:11:20.414Z,83.11
2024-04-19T19:13:52.705Z,83.05
2024-04-19T19:16:24.130Z,83.68
2024-04-19T19:18:55.511Z,83.18
2024-04-19T19:21:29.886Z,82.73
2024-04-19T19:24:02.712Z,82.17
2024-04-19T19:26:35.547Z,82.62
2024-04-19T19:29:13.056Z,82.61
2024-04-19T19:31:44.471Z,83.18
2024-04-19T19:34:15.851Z,83.30
2024-04-19T19:36:49.409Z,83.39
2024-04-19T19:39:20.661Z,83.26
2024-04-19T19:41:52.268Z,82.81
2024-04-19T19:44:23.698Z,82.58
2024-04-19T19:46:57.047Z,82.64
2024-04-19T19:49:28.709Z,82.67
2024-04-19T19:52:04.576Z,82.52
2024-04-19T19:55:27.240Z,82.54
2024-04-19T19:57:59.276Z,82.89
2024-04-19T20:00:49.573Z,82.89
2024-04-19T20:03:38.695Z,83.18
2024-04-19T20:06:10.315Z,83.38
2024-04-19T20:08:42.400Z,83.28
2024-04-19T20:11:13.780Z,83.03
2024-04-19T20:13:44.984Z,84.36
2024-04-19T20:16:17.424Z,84.95
2024-04-19T20:18:49.060Z,85.33
2024-04-19T20:21:20.486Z,84.91
2024-04-19T20:23:52.472Z,84.68
2024-04-19T20:26:23.811Z,84.25
2024-04-19T20:28:55.559Z,83.89
2024-04-19T20:31:27.721Z,84.23
2024-04-19T20:33:59.316Z,83.96
2024-04-19T20:36:31.412Z,83.54
2024-04-19T20:39:02.619Z,83.49
2024-04-19T20:41:34.033Z,84.39
2024-04-19T20:44:05.383Z,84.01
2024-04-19T20:46:36.486Z,83.94
2024-04-19T20:49:07.751Z,83.55
2024-04-19T20:51:38.951Z,83.83
2024-04-19T20:54:10.113Z,83.59
2024-04-19T20:56:41.555Z,83.60
2024-04-19T20:59:13.359Z,83.67
2024-04-19T21:01:44.686Z,84.00
2024-04-19T21:04:15.899Z,83.76
2024-04-19T21:06:47.149Z,83.73
2024-04-19T21:09:18.727Z,83.42
2024-04-19T21:11:49.904Z,83.22
2024-04-19T21:14:22.174Z,83.20
2024-04-19T21:16:53.352Z,83.37
2024-04-19T21:19:24.750Z,83.71
2024-04-19T21:21:55.929Z,83.18
2024-04-19T21:24:27.759Z,82.63
2024-04-19T21:26:58.981Z,82.65
2024-04-19T21:29:30.144Z,82.77
2024-04-19T21:32:01.339Z,82.82
2024-04-19T21:34:33.047Z,83.11
2024-04-19T21:37:04.453Z,83.21
2024-04-19T21:39:35.724Z,83.27
2024-04-19T21:42:07.527Z,83.56
2024-04-19T21:44:38.723Z,83.54
2024-04-19T21:47:09.988Z,83.57
2024-04-19T21:49:41.495Z,83.35
2024-04-19T21:52:12.710Z,83.31
2024-04-19T21:54:44.432Z,83.16
2024-04-19T21:57:15.518Z,83.43
2024-04-19T21:59:46.733Z,83.72
2024-04-19T22:02:17.848Z,83.86
2024-04-19T22:04:50.948Z,83.97
2024-04-19T22:07:22.494Z,83.99
2024-04-19T22:09:56.342Z,83.98
2024-04-19T22:12:27.526Z,83.78
2024-04-19T22:14:58.794Z,84.01
2024-04-19T22:17:30.761Z,83.90
2024-04-19T22:20:02.129Z,83.97
2024-04-19T22:22:35.067Z,83.32
2024-04-19T22:25:07.001Z,83.86
2024-04-19T22:27:38.426Z,84.08
2024-04-19T22:30:11.658Z,84.16
2024-04-19T22:32:42.847Z,84.07
2024-04-19T22:35:14.135Z,83.90
2024-04-19T22:37:45.609Z,84.11
2024-04-19T22:40:17.207Z,84.11
2024-04-19T22:42:48.352Z,84.09
2024-04-19T22:45:19.551Z,84.17
2024-04-19T22:47:50.868Z,84.21
2024-04-19T22:50:22.117Z,83.99
2024-04-19T22:52:53.198Z,84.02
2024-04-19T22:55:24.495Z,84.00
2024-04-19T22:57:58.495Z,84.29
2024-04-19T23:00:29.767Z,84.28
2024-04-19T23:03:01.051Z,84.37
2024-04-19T23:05:32.529Z,84.55
2024-04-19T23:08:03.872Z,84.46
2024-04-19T23:10:35.119Z,84.35
2024-04-19T23:13:07.035Z,84.57
2024-04-19T23:15:38.292Z,84.62
2024-04-19T23:18:09.620Z,84.57
2024-04-19T23:20:40.767Z,84.58
2024-04-19T23:23:11.925Z,84.63
2024-04-19T23:25:43.005Z,84.73
2024-04-19T23:28:14.305Z,84.59
2024-04-19T23:30:46.103Z,84.64
2024-04-19T23:33:17.293Z,84.88
2024-04-19T23:35:48.969Z,84.68
2024-04-19T23:38:20.156Z,84.82
2024-04-19T23:40:52.239Z,85.16
2024-04-19T23:43:23.450Z,85.14
2024-04-19T23:45:54.591Z,85.51
2024-04-19T23:48:25.921Z,85.38
2024-04-19T23:50:57.121Z,85.36
2024-04-19T23:53:28.335Z,85.43
2024-04-19T23:55:59.477Z,85.68
2024-04-19T23:58:31.035Z,85.65
